Time;durP1;ratioP1;P1;durP2;ratioP2;P2;SDS_P1;SDS_P2;PMS_P1;PMS_P2;Temp;Humidity;BMP_temperature;BMP_pressure;BME280_temperature;BME280_humidity;BME280_pressure;Samples;Min_cycle;Max_cycle;Signal;HPM_P1;HPM_P2
2022/12/28 00:00:52;;;;;;;14.00;6.57;;;5.00;99.90;;;;;;4959978;28;20133;-81
2022/12/28 00:03:18;;;;;;;13.32;6.57;;;5.00;99.90;;;;;;4971797;28;20053;-82
2022/12/28 00:05:44;;;;;;;15.23;6.28;;;5.00;99.90;;;;;;4966099;28;20049;-81
2022/12/28 00:08:09;;;;;;;22.08;7.25;;;5.00;99.90;;;;;;4987146;28;20051;-81
2022/12/28 00:10:35;;;;;;;17.73;6.82;;;4.90;99.90;;;;;;4978877;28;20128;-81
2022/12/28 00:13:01;;;;;;;19.10;7.55;;;5.10;99.90;;;;;;4976963;28;20042;-80
2022/12/28 00:15:26;;;;;;;20.80;8.68;;;5.00;99.90;;;;;;4970213;28;20208;-81
2022/12/28 00:17:52;;;;;;;18.85;7.18;;;4.90;99.90;;;;;;4986295;28;20050;-80
2022/12/28 00:20:17;;;;;;;16.15;6.65;;;4.90;99.90;;;;;;4971942;28;20042;-82
2022/12/28 00:22:43;;;;;;;15.25;7.00;;;5.00;99.90;;;;;;4956013;28;20181;-80
2022/12/28 00:25:09;;;;;;;15.48;8.18;;;5.00;99.90;;;;;;4958950;28;20487;-82
2022/12/28 00:27:35;;;;;;;18.15;7.82;;;4.90;99.90;;;;;;4940964;28;20042;-81
2022/12/28 00:30:01;;;;;;;17.60;7.25;;;4.90;99.90;;;;;;4950360;28;20393;-83
2022/12/28 00:32:28;;;;;;;16.08;7.95;;;5.00;99.90;;;;;;4969025;28;20154;-83
2022/12/28 00:34:54;;;;;;;21.30;8.95;;;5.10;99.90;;;;;;4950862;28;20235;-81
2022/12/28 00:37:20;;;;;;;15.65;8.07;;;5.00;99.90;;;;;;4950232;28;20517;-80
2022/12/28 00:39:45;;;;;;;14.25;8.02;;;5.00;99.90;;;;;;4960014;28;20050;-80
2022/12/28 00:42:11;;;;;;;18.88;7.93;;;5.00;99.90;;;;;;4952770;28;20053;-81
2022/12/28 00:44:37;;;;;;;21.33;9.10;;;5.00;99.90;;;;;;4984648;28;20049;-81
2022/12/28 00:47:02;;;;;;;18.25;8.70;;;5.00;99.90;;;;;;4971428;28;20042;-81
2022/12/28 00:49:28;;;;;;;25.15;9.57;;;5.00;99.90;;;;;;4942118;28;20137;-82
2022/12/28 00:51:54;;;;;;;17.67;8.50;;;5.00;99.90;;;;;;4959139;28;20048;-81
2022/12/28 00:54:19;;;;;;;22.42;8.32;;;5.00;99.90;;;;;;4988027;28;20488;-82
2022/12/28 00:56:45;;;;;;;22.98;8.80;;;5.00;99.90;;;;;;4960178;28;20069;-80
2022/12/28 00:59:11;;;;;;;21.02;9.90;;;5.00;99.90;;;;;;4992919;28;20048;-84
2022/12/28 01:01:37;;;;;;;19.92;9.23;;;5.00;99.90;;;;;;4974761;28;20184;-81
2022/12/28 01:04:03;;;;;;;18.40;9.77;;;5.00;99.90;;;;;;4987356;28;20042;-80
2022/12/28 01:06:29;;;;;;;26.40;10.55;;;5.00;99.90;;;;;;4975813;28;20056;-81
2022/12/28 01:08:55;;;;;;;19.27;9.43;;;5.00;99.90;;;;;;4976773;28;20050;-80
2022/12/28 01:11:23;;;;;;;18.02;8.75;;;5.00;99.90;;;;;;4960539;28;20034;-81
2022/12/28 01:13:50;;;;;;;21.85;9.02;;;5.00;99.90;;;;;;4993995;28;20061;-80
2022/12/28 01:16:18;;;;;;;19.05;10.07;;;5.10;99.90;;;;;;4973192;28;20045;-80
2022/12/28 01:18:45;;;;;;;16.52;8.93;;;5.10;99.90;;;;;;4986354;28;20492;-82
2022/12/28 01:21:15;;;;;;;20.77;10.07;;;5.10;99.90;;;;;;4975799;28;20050;-81
2022/12/28 01:23:42;;;;;;;18.52;9.35;;;5.10;99.90;;;;;;4964334;28;20084;-80
2022/12/28 01:26:07;;;;;;;23.40;9.23;;;5.10;99.90;;;;;;4973698;28;20057;-81
2022/12/28 01:28:33;;;;;;;19.48;9.75;;;5.00;99.90;;;;;;4990329;28;20038;-81
2022/12/28 01:31:14;;;;;;;16.75;9.50;;;5.10;99.90;;;;;;4975815;28;20052;-82
2022/12/28 01:33:40;;;;;;;22.13;9.82;;;5.10;99.90;;;;;;4998191;28;20052;-82
2022/12/28 01:36:22;;;;;;;15.20;8.88;;;5.10;99.90;;;;;;4958870;28;20046;-81
2022/12/28 01:38:52;;;;;;;16.38;9.70;;;5.20;99.90;;;;;;4990531;28;20120;-80
2022/12/28 01:41:19;;;;;;;19.98;9.15;;;5.10;99.90;;;;;;4990523;28;20041;-86
2022/12/28 01:44:09;;;;;;;17.58;9.73;;;5.20;99.90;;;;;;4977816;28;20046;-82
2022/12/28 01:46:49;;;;;;;19.80;9.43;;;5.20;99.90;;;;;;4976614;28;20511;-81
2022/12/28 01:49:50;;;;;;;16.45;9.23;;;5.20;99.90;;;;;;4989466;28;20093;-81
2022/12/28 01:52:36;;;;;;;19.33;9.68;;;5.20;99.90;;;;;;4961843;28;20085;-81
2022/12/28 01:55:18;;;;;;;24.23;10.65;;;5.20;99.90;;;;;;4972508;28;20062;-82
2022/12/28 01:57:52;;;;;;;24.83;10.77;;;5.30;99.90;;;;;;4965165;28;20046;-82
2022/12/28 02:00:18;;;;;;;17.30;10.05;;;5.30;99.90;;;;;;4975170;28;20107;-85
2022/12/28 02:02:55;;;;;;;19.83;11.05;;;5.30;99.90;;;;;;4982147;28;20050;-81
2022/12/28 02:05:25;;;;;;;17.80;10.75;;;5.30;99.90;;;;;;4990697;28;20108;-86
2022/12/28 02:08:01;;;;;;;16.20;10.23;;;5.30;99.90;;;;;;4976412;28;20053;-81
2022/12/28 02:10:28;;;;;;;16.00;10.43;;;5.30;99.90;;;;;;5008275;28;20119;-81
2022/12/28 02:12:55;;;;;;;23.27;10.52;;;5.40;99.90;;;;;;4976482;28;20057;-81
2022/12/28 02:15:21;;;;;;;18.42;10.85;;;5.50;99.90;;;;;;4987993;28;20050;-85
2022/12/28 02:17:47;;;;;;;19.90;11.35;;;5.30;99.90;;;;;;4980347;28;20057;-83
2022/12/28 02:20:13;;;;;;;19.63;11.00;;;5.40;99.90;;;;;;4964732;28;20521;-81
2022/12/28 02:22:57;;;;;;;24.13;11.10;;;5.40;99.90;;;;;;4958639;28;20123;-82
2022/12/28 02:25:37;;;;;;;23.92;10.85;;;5.50;99.90;;;;;;4983031;28;20119;-84
2022/12/28 02:28:03;;;;;;;21.17;11.52;;;5.40;99.90;;;;;;4990073;28;20108;-82
2022/12/28 02:30:34;;;;;;;19.10;11.25;;;5.50;99.90;;;;;;4987364;28;20053;-81
2022/12/28 02:33:20;;;;;;;26.30;12.48;;;5.50;99.90;;;;;;4973483;28;20053;-81
2022/12/28 02:35:54;;;;;;;19.67;10.82;;;5.50;99.90;;;;;;4973099;28;20057;-80
2022/12/28 02:38:35;;;;;;;25.95;12.30;;;5.50;99.90;;;;;;4991202;28;20518;-81
2022/12/28 02:41:17;;;;;;;25.85;11.32;;;5.50;99.90;;;;;;4975072;28;20045;-82
2022/12/28 02:43:43;;;;;;;24.05;12.93;;;5.50;99.90;;;;;;4973684;28;20414;-81
2022/12/28 02:52:04;;;;;;;20.20;11.73;;;5.50;99.90;;;;;;4986072;28;20531;-82
2022/12/28 02:58:06;;;;;;;24.08;12.05;;;5.60;99.90;;;;;;4989811;28;20133;-81
2022/12/28 03:00:48;;;;;;;24.83;12.40;;;5.60;99.90;;;;;;4974454;28;20069;-81
2022/12/28 03:03:37;;;;;;;20.40;11.35;;;5.60;99.90;;;;;;4987941;28;20074;-82
2022/12/28 03:09:26;;;;;;;21.55;11.98;;;5.60;99.90;;;;;;4977203;28;20053;-81
2022/12/28 03:12:18;;;;;;;24.52;13.20;;;5.60;99.90;;;;;;4974268;28;20491;-81
2022/12/28 03:15:10;;;;;;;24.33;12.18;;;5.70;99.90;;;;;;4965851;28;20260;-81
2022/12/28 03:31:39;;;;;;;30.63;14.47;;;5.90;99.90;;;;;;5007243;28;20062;-81
2022/12/28 03:34:05;;;;;;;28.20;15.13;;;5.90;99.90;;;;;;4991329;28;20495;-83
2022/12/28 03:36:36;;;;;;;29.90;14.80;;;5.90;99.90;;;;;;4975192;28;20058;-81
2022/12/28 03:39:09;;;;;;;22.92;13.25;;;5.90;99.90;;;;;;4975848;28;20050;-81
2022/12/28 03:41:41;;;;;;;22.77;12.13;;;6.00;99.90;;;;;;4994096;28;20054;-81
2022/12/28 03:44:23;;;;;;;26.58;15.30;;;6.10;99.90;;;;;;4995316;28;20053;-81
2022/12/28 03:47:02;;;;;;;22.77;11.27;;;6.00;99.90;;;;;;4986299;28;20191;-82
2022/12/28 03:49:29;;;;;;;31.73;14.80;;;6.10;99.90;;;;;;4976170;28;20054;-81
2022/12/28 03:51:55;;;;;;;20.23;12.45;;;6.10;99.90;;;;;;4961897;28;20049;-81
2022/12/28 03:54:21;;;;;;;24.45;10.57;;;6.10;99.90;;;;;;4977139;28;20046;-80
2022/12/28 03:56:49;;;;;;;19.90;10.30;;;6.10;99.90;;;;;;4988458;28;20045;-81
2022/12/28 03:59:16;;;;;;;19.20;10.90;;;6.20;99.90;;;;;;4993507;28;20108;-82
2022/12/28 04:01:42;;;;;;;20.08;11.23;;;6.20;99.90;;;;;;4990503;28;20081;-81
2022/12/28 04:04:08;;;;;;;20.30;11.98;;;6.20;99.90;;;;;;4972584;28;20139;-81
2022/12/28 04:06:33;;;;;;;19.85;11.27;;;6.20;99.90;;;;;;4976817;28;20038;-81
2022/12/28 04:08:59;;;;;;;21.85;11.65;;;6.20;99.90;;;;;;4958448;28;20368;-81
2022/12/28 04:11:25;;;;;;;19.60;10.88;;;6.30;99.90;;;;;;4956417;28;20046;-81
2022/12/28 04:13:54;;;;;;;16.30;9.50;;;6.30;99.90;;;;;;4974366;28;20107;-81
2022/12/28 04:16:19;;;;;;;16.92;9.30;;;6.30;99.90;;;;;;4976729;28;20045;-80
2022/12/28 04:18:46;;;;;;;16.83;8.73;;;6.30;99.90;;;;;;4958643;28;20049;-81
2022/12/28 04:21:13;;;;;;;20.13;10.73;;;6.40;99.90;;;;;;4976537;28;20534;-81
2022/12/28 04:23:38;;;;;;;17.92;10.02;;;6.40;99.90;;;;;;4973936;28;20046;-85
2022/12/28 04:26:06;;;;;;;17.88;10.52;;;6.50;99.90;;;;;;4951678;28;20052;-80
2022/12/28 04:28:33;;;;;;;15.23;10.15;;;6.40;99.90;;;;;;4953125;28;20081;-82
2022/12/28 04:30:59;;;;;;;15.88;9.68;;;6.40;99.90;;;;;;4978046;28;20865;-81
2022/12/28 04:33:26;;;;;;;16.23;9.95;;;6.50;99.90;;;;;;4980031;28;20053;-80
2022/12/28 04:35:51;;;;;;;17.55;9.68;;;6.40;99.90;;;;;;4979944;28;20046;-80
2022/12/28 04:38:18;;;;;;;12.88;6.97;;;6.50;99.90;;;;;;4978135;28;20496;-80
2022/12/28 04:40:44;;;;;;;19.77;10.75;;;6.40;99.90;;;;;;4973987;28;20061;-80
2022/12/28 04:43:10;;;;;;;17.13;9.82;;;6.50;99.90;;;;;;4970686;28;20400;-80
2022/12/28 04:45:36;;;;;;;16.48;9.77;;;6.60;99.90;;;;;;4960378;28;20361;-80
2022/12/28 04:48:01;;;;;;;17.38;8.98;;;6.50;99.90;;;;;;4973635;28;20125;-80
2022/12/28 04:50:28;;;;;;;14.40;9.18;;;6.60;99.90;;;;;;4976195;28;20042;-80
2022/12/28 04:52:53;;;;;;;18.42;10.35;;;6.60;99.90;;;;;;4977760;28;20156;-80
2022/12/28 04:55:19;;;;;;;15.80;9.68;;;6.60;99.90;;;;;;4946586;28;20515;-81
2022/12/28 04:57:46;;;;;;;16.27;10.40;;;6.60;99.90;;;;;;4991098;28;20042;-82
2022/12/28 05:00:13;;;;;;;16.05;10.43;;;6.60;99.90;;;;;;4971722;28;20069;-81
2022/12/28 05:02:39;;;;;;;16.83;11.07;;;6.70;99.90;;;;;;4986571;28;20049;-82
2022/12/28 05:05:05;;;;;;;22.17;11.70;;;6.70;99.90;;;;;;4988990;28;20049;-80
2022/12/28 05:07:31;;;;;;;17.70;10.82;;;6.70;99.90;;;;;;4958084;28;20038;-80
2022/12/28 05:09:57;;;;;;;19.73;11.18;;;6.70;99.90;;;;;;4976279;28;20470;-81
2022/12/28 05:12:22;;;;;;;14.50;8.82;;;6.70;99.90;;;;;;4974270;28;20064;-82
2022/12/28 05:14:48;;;;;;;16.75;10.07;;;6.70;99.90;;;;;;4973055;28;20077;-81
2022/12/28 05:17:17;;;;;;;17.98;9.77;;;6.90;99.90;;;;;;4992152;28;20052;-85
2022/12/28 05:19:42;;;;;;;18.98;11.45;;;6.80;99.90;;;;;;4964181;28;20415;-81
2022/12/28 05:22:10;;;;;;;19.58;11.50;;;6.90;99.90;;;;;;4991394;28;20046;-79
2022/12/28 05:24:37;;;;;;;19.13;10.23;;;6.90;99.90;;;;;;4965386;28;20042;-80
2022/12/28 05:27:03;;;;;;;16.73;10.43;;;6.90;99.90;;;;;;4995568;28;20399;-81
2022/12/28 05:29:29;;;;;;;17.73;11.82;;;6.90;99.90;;;;;;4979646;28;20046;-81
2022/12/28 05:31:54;;;;;;;11.80;8.45;;;7.00;99.90;;;;;;4965457;28;20097;-80
2022/12/28 05:34:20;;;;;;;20.95;11.40;;;7.00;99.90;;;;;;4974483;28;20048;-80
2022/12/28 05:36:46;;;;;;;15.93;8.77;;;7.10;99.90;;;;;;4991869;28;20058;-81
2022/12/28 05:39:14;;;;;;;17.50;10.50;;;7.10;99.90;;;;;;4975564;28;20426;-81
2022/12/28 05:41:40;;;;;;;17.48;11.65;;;7.20;99.90;;;;;;4954376;28;20539;-85
2022/12/28 05:44:06;;;;;;;18.90;12.40;;;7.10;99.90;;;;;;4974756;28;20042;-80
2022/12/28 05:46:33;;;;;;;18.73;11.55;;;7.20;99.90;;;;;;4974489;28;20046;-81
2022/12/28 05:49:00;;;;;;;21.60;11.75;;;7.20;99.90;;;;;;4989055;28;20042;-82
2022/12/28 05:51:29;;;;;;;20.92;13.00;;;7.20;99.90;;;;;;4974508;28;20108;-82
2022/12/28 05:53:58;;;;;;;18.42;10.68;;;7.30;99.90;;;;;;4976898;28;20136;-81
2022/12/28 05:56:26;;;;;;;22.63;12.80;;;7.30;99.90;;;;;;4973039;28;20057;-80
2022/12/28 05:58:53;;;;;;;17.95;10.80;;;7.30;99.90;;;;;;4981568;28;20519;-86
2022/12/28 06:01:22;;;;;;;17.02;10.88;;;7.40;99.90;;;;;;4988846;28;20096;-80
2022/12/28 06:03:52;;;;;;;19.88;12.02;;;7.40;99.90;;;;;;4992952;28;20058;-81
2022/12/28 06:06:19;;;;;;;26.70;15.05;;;7.40;99.90;;;;;;4975852;28;20099;-83
2022/12/28 06:08:46;;;;;;;26.33;15.82;;;7.30;99.90;;;;;;4982372;28;20062;-81
2022/12/28 06:11:23;;;;;;;24.42;15.40;;;7.50;99.90;;;;;;4973827;28;20111;-81
2022/12/28 06:13:49;;;;;;;26.17;16.40;;;7.50;99.90;;;;;;4987421;28;20050;-82
2022/12/28 06:16:18;;;;;;;29.33;17.50;;;7.50;99.90;;;;;;4972346;28;20113;-81
2022/12/28 06:18:44;;;;;;;24.50;15.43;;;7.50;99.90;;;;;;4966533;28;20054;-81
2022/12/28 06:21:13;;;;;;;28.30;17.10;;;7.60;99.90;;;;;;4990992;28;20069;-81
2022/12/28 06:23:38;;;;;;;22.17;14.23;;;7.60;99.90;;;;;;4974870;28;20046;-81
2022/12/28 06:26:06;;;;;;;18.08;10.57;;;7.60;99.90;;;;;;4973720;28;20103;-82
2022/12/28 06:28:32;;;;;;;28.90;15.80;;;7.60;99.90;;;;;;4975439;28;20042;-80
2022/12/28 06:31:06;;;;;;;27.73;16.02;;;7.60;99.90;;;;;;4967613;28;20046;-83
2022/12/28 06:33:32;;;;;;;23.75;15.00;;;7.70;99.90;;;;;;4961321;28;20149;-80
2022/12/28 06:35:58;;;;;;;30.15;16.33;;;7.70;99.90;;;;;;4974328;28;20121;-82
2022/12/28 06:38:25;;;;;;;34.78;17.80;;;7.70;99.90;;;;;;4991197;28;20136;-83
2022/12/28 06:40:51;;;;;;;30.25;16.00;;;7.80;99.90;;;;;;4954954;28;20129;-81
2022/12/28 06:43:17;;;;;;;28.80;15.70;;;7.70;99.90;;;;;;4990334;28;20125;-81
2022/12/28 06:45:52;;;;;;;26.00;15.05;;;7.70;99.90;;;;;;4957064;28;20088;-80
2022/12/28 06:48:18;;;;;;;27.60;15.48;;;7.80;99.90;;;;;;4981661;28;20048;-80
2022/12/28 06:50:56;;;;;;;23.02;14.18;;;7.70;99.90;;;;;;4974714;28;20046;-80
2022/12/28 06:53:23;;;;;;;16.80;11.55;;;7.80;99.90;;;;;;4989423;28;20064;-81
2022/12/28 06:56:03;;;;;;;20.55;13.00;;;7.80;99.90;;;;;;4972909;28;20104;-83
2022/12/28 06:58:29;;;;;;;19.75;13.23;;;7.80;99.90;;;;;;4991177;28;20715;-82
2022/12/28 07:00:57;;;;;;;17.50;11.18;;;7.80;99.90;;;;;;4961307;28;20041;-81
2022/12/28 07:03:23;;;;;;;23.33;14.13;;;7.90;99.90;;;;;;4994472;28;20050;-81
2022/12/28 07:05:49;;;;;;;24.50;13.70;;;7.90;99.90;;;;;;4976137;28;20134;-82
2022/12/28 07:08:15;;;;;;;24.73;14.45;;;7.90;99.90;;;;;;4975510;28;20118;-80
2022/12/28 07:10:41;;;;;;;22.55;13.68;;;7.90;99.90;;;;;;4991667;28;20100;-80
2022/12/28 07:13:07;;;;;;;28.45;14.55;;;7.90;99.90;;;;;;4986290;28;20068;-80
2022/12/28 07:15:35;;;;;;;20.67;13.07;;;7.90;99.90;;;;;;4971820;28;20056;-81
2022/12/28 07:18:00;;;;;;;21.15;12.70;;;7.90;99.90;;;;;;4974458;28;20052;-84
2022/12/28 07:20:26;;;;;;;19.58;11.88;;;8.00;99.90;;;;;;4952137;28;20085;-80
2022/12/28 07:22:53;;;;;;;21.05;12.93;;;7.90;99.90;;;;;;4961758;28;20061;-79
2022/12/28 07:25:19;;;;;;;20.73;12.85;;;8.00;99.90;;;;;;4978451;28;20046;-80
2022/12/28 07:27:45;;;;;;;21.27;12.10;;;8.00;99.90;;;;;;5004016;28;20088;-81
2022/12/28 07:30:11;;;;;;;22.40;14.68;;;8.00;99.90;;;;;;4944013;28;20054;-79
2022/12/28 07:32:38;;;;;;;21.95;14.70;;;8.10;99.90;;;;;;4976230;28;20049;-80
2022/12/28 07:35:04;;;;;;;25.27;15.60;;;8.00;99.90;;;;;;4976455;28;20046;-84
2022/12/28 07:37:30;;;;;;;26.80;16.88;;;8.10;99.90;;;;;;4960641;28;20061;-79
2022/12/28 07:39:56;;;;;;;29.02;17.25;;;8.00;99.90;;;;;;4945565;28;20045;-81
2022/12/28 07:42:28;;;;;;;31.83;18.55;;;8.20;99.90;;;;;;4966365;28;20084;-81
2022/12/28 07:44:59;;;;;;;25.52;16.13;;;8.10;99.90;;;;;;4971810;28;20403;-80
2022/12/28 07:47:25;;;;;;;23.30;15.95;;;8.10;99.90;;;;;;4961475;28;20061;-82
2022/12/28 07:49:51;;;;;;;28.17;17.35;;;8.20;99.90;;;;;;4994329;28;20042;-82
2022/12/28 07:52:16;;;;;;;29.20;18.08;;;8.20;99.90;;;;;;4978128;28;20046;-82
2022/12/28 07:54:42;;;;;;;25.48;16.70;;;8.20;99.90;;;;;;4979722;28;20061;-81
2022/12/28 07:57:08;;;;;;;27.80;17.50;;;8.20;99.90;;;;;;4959853;28;20065;-86
2022/12/28 07:59:33;;;;;;;28.73;16.83;;;8.30;99.90;;;;;;4977450;28;20391;-80
2022/12/28 08:01:59;;;;;;;24.80;15.40;;;8.20;99.90;;;;;;4977687;28;20098;-80
2022/12/28 08:04:26;;;;;;;29.02;15.85;;;8.20;99.90;;;;;;4989383;28;20503;-79
2022/12/28 08:06:51;;;;;;;28.85;18.23;;;8.20;99.90;;;;;;4994347;28;20056;-80
2022/12/28 08:09:17;;;;;;;22.50;14.73;;;8.30;99.90;;;;;;4979629;28;20403;-81
2022/12/28 08:11:44;;;;;;;30.33;18.38;;;8.30;99.90;;;;;;4955649;28;20515;-83
2022/12/28 08:14:11;;;;;;;31.05;17.88;;;8.20;99.90;;;;;;4993202;28;20506;-85
2022/12/28 08:16:42;;;;;;;31.88;17.70;;;8.30;99.90;;;;;;4996373;28;20116;-79
2022/12/28 08:19:09;;;;;;;33.33;18.60;;;8.30;99.90;;;;;;4995066;28;20057;-78
2022/12/28 08:21:40;;;;;;;27.85;17.77;;;8.30;99.90;;;;;;4977051;28;20072;-82
2022/12/28 08:24:08;;;;;;;29.42;18.40;;;8.30;99.90;;;;;;4991682;28;20046;-82
2022/12/28 08:26:39;;;;;;;28.42;17.30;;;8.30;99.90;;;;;;4978035;28;20072;-82
2022/12/28 08:29:08;;;;;;;33.05;17.35;;;8.30;99.90;;;;;;4983060;28;20039;-82
2022/12/28 08:31:36;;;;;;;29.33;16.17;;;8.30;99.90;;;;;;4992786;28;20057;-81
2022/12/28 08:34:06;;;;;;;28.98;17.05;;;8.30;99.90;;;;;;4993090;28;20042;-81
2022/12/28 08:36:32;;;;;;;29.38;16.73;;;8.40;99.90;;;;;;4991076;28;20062;-81
2022/12/28 08:38:59;;;;;;;22.38;14.93;;;8.40;99.90;;;;;;4974522;28;20054;-80
2022/12/28 08:41:27;;;;;;;30.42;16.13;;;8.40;99.90;;;;;;4959403;28;20119;-79
2022/12/28 08:43:53;;;;;;;29.13;15.90;;;8.40;99.90;;;;;;4955693;28;20137;-82
2022/12/28 08:46:22;;;;;;;23.05;14.27;;;8.40;99.90;;;;;;4978625;28;20100;-81
2022/12/28 08:48:49;;;;;;;21.70;13.93;;;8.40;99.90;;;;;;4993305;28;20044;-82
2022/12/28 08:51:20;;;;;;;23.95;14.02;;;8.40;99.90;;;;;;4993992;28;20101;-87
2022/12/28 08:53:46;;;;;;;25.50;13.52;;;8.50;99.90;;;;;;4984586;28;20685;-81
2022/12/28 08:56:14;;;;;;;23.60;13.98;;;8.50;99.90;;;;;;4989854;28;20526;-82
2022/12/28 08:58:41;;;;;;;20.98;12.77;;;8.50;99.90;;;;;;4995274;28;20100;-81
2022/12/28 09:01:16;;;;;;;22.08;13.00;;;8.50;99.90;;;;;;4975142;28;20109;-80
2022/12/28 09:03:44;;;;;;;24.40;15.10;;;8.50;99.90;;;;;;4992344;28;20043;-81
2022/12/28 09:06:13;;;;;;;16.33;9.82;;;8.50;99.90;;;;;;4975347;28;20661;-81
2022/12/28 09:08:39;;;;;;;25.50;14.52;;;8.50;99.90;;;;;;4986827;28;20049;-78
2022/12/28 09:11:07;;;;;;;27.33;13.73;;;8.50;99.90;;;;;;4994876;28;20054;-81
2022/12/28 09:13:34;;;;;;;18.48;11.57;;;8.50;99.90;;;;;;4991116;28;20058;-81
2022/12/28 09:16:05;;;;;;;21.83;12.30;;;8.50;99.90;;;;;;4994989;28;20483;-82
2022/12/28 09:18:30;;;;;;;23.50;13.05;;;8.60;99.90;;;;;;4978883;28;20050;-81
2022/12/28 09:21:02;;;;;;;18.67;11.43;;;8.60;99.90;;;;;;4959101;28;20097;-81
2022/12/28 09:23:28;;;;;;;20.92;11.88;;;8.60;99.90;;;;;;4986044;28;20141;-82
2022/12/28 09:25:53;;;;;;;28.05;14.27;;;8.60;99.90;;;;;;4942570;28;20157;-81
2022/12/28 09:28:19;;;;;;;21.85;12.20;;;8.60;99.90;;;;;;4989608;28;20038;-85
2022/12/28 09:30:45;;;;;;;21.42;13.60;;;8.70;99.90;;;;;;4977021;28;20104;-82
2022/12/28 09:36:02;;;;;;;21.50;12.30;;;8.70;99.90;;;;;;4982365;28;20049;-82
2022/12/28 09:38:30;;;;;;;20.75;11.10;;;8.70;99.90;;;;;;4981558;28;20416;-81
2022/12/28 09:40:57;;;;;;;17.88;10.88;;;8.70;99.90;;;;;;4966524;28;20497;-81
2022/12/28 09:43:25;;;;;;;24.45;11.13;;;8.70;99.90;;;;;;4974902;28;20145;-85
2022/12/28 09:45:53;;;;;;;18.00;10.68;;;8.70;99.90;;;;;;4993100;28;20052;-81
2022/12/28 09:48:22;;;;;;;24.60;12.25;;;8.70;99.90;;;;;;4977088;28;20045;-81
2022/12/28 09:50:49;;;;;;;12.00;7.38;;;8.80;99.90;;;;;;4960347;28;20042;-82
2022/12/28 09:53:29;;;;;;;16.83;9.88;;;8.80;99.90;;;;;;4993730;28;20072;-81
2022/12/28 09:55:59;;;;;;;19.90;11.98;;;8.80;99.90;;;;;;4969177;28;20514;-82
2022/12/28 09:58:27;;;;;;;17.88;11.13;;;8.80;99.90;;;;;;4976471;28;20078;-85
2022/12/28 10:00:59;;;;;;;11.60;7.93;;;8.80;99.90;;;;;;4976851;28;20057;-82
2022/12/28 10:03:36;;;;;;;20.00;12.32;;;8.80;99.90;;;;;;4992728;28;20151;-86
2022/12/28 10:06:04;;;;;;;17.15;11.00;;;8.80;99.90;;;;;;4993447;28;20049;-82
2022/12/28 10:08:33;;;;;;;19.00;11.38;;;8.90;99.90;;;;;;4976754;28;20049;-82
2022/12/28 10:11:01;;;;;;;17.20;11.27;;;8.90;99.90;;;;;;4993802;28;20038;-80
2022/12/28 10:13:38;;;;;;;18.17;11.45;;;8.90;99.90;;;;;;4960505;28;20041;-86
2022/12/28 10:16:05;;;;;;;16.45;11.15;;;8.90;99.90;;;;;;4993553;28;20052;-81
2022/12/28 10:18:34;;;;;;;18.10;11.20;;;8.90;99.90;;;;;;4984928;28;20046;-82
2022/12/28 10:21:00;;;;;;;17.40;10.98;;;8.90;99.90;;;;;;4959223;28;20050;-82
2022/12/28 10:23:29;;;;;;;17.13;10.65;;;8.90;99.90;;;;;;4978184;28;20052;-82
2022/12/28 10:25:58;;;;;;;12.68;8.52;;;9.00;99.90;;;;;;4992402;28;20034;-83
2022/12/28 10:28:27;;;;;;;16.08;10.05;;;9.00;99.90;;;;;;4991112;28;20521;-82
2022/12/28 10:31:10;;;;;;;15.43;10.35;;;9.00;99.90;;;;;;4978195;28;20298;-83
2022/12/28 10:33:47;;;;;;;14.43;10.18;;;9.00;99.90;;;;;;4981002;28;20054;-82
2022/12/28 10:36:15;;;;;;;10.93;6.93;;;9.00;99.90;;;;;;4974056;28;20045;-82
2022/12/28 10:38:47;;;;;;;13.10;8.13;;;9.00;99.90;;;;;;4957876;28;20055;-82
2022/12/28 10:41:17;;;;;;;14.57;9.30;;;9.00;99.90;;;;;;4945797;28;20057;-82
2022/12/28 10:43:51;;;;;;;13.25;8.43;;;9.00;99.90;;;;;;4971321;28;20061;-84
2022/12/28 10:46:22;;;;;;;16.33;10.25;;;9.00;99.90;;;;;;4960875;28;20046;-81
2022/12/28 10:48:53;;;;;;;15.70;8.80;;;9.00;99.90;;;;;;4956739;28;20051;-82
2022/12/28 10:51:28;;;;;;;16.73;10.52;;;9.00;99.90;;;;;;4972840;28;20053;-82
2022/12/28 10:53:55;;;;;;;19.60;11.07;;;9.00;99.90;;;;;;4961155;28;20057;-83
2022/12/28 10:56:27;;;;;;;17.15;10.40;;;9.00;99.90;;;;;;4961076;28;20384;-81
2022/12/28 10:59:09;;;;;;;19.27;10.77;;;9.00;99.90;;;;;;4957390;28;20537;-82
2022/12/28 11:01:36;;;;;;;16.52;9.50;;;9.00;99.90;;;;;;4979711;28;20143;-87
2022/12/28 11:04:06;;;;;;;14.30;9.43;;;9.00;99.90;;;;;;4941908;28;20046;-81
2022/12/28 11:06:52;;;;;;;15.82;9.95;;;9.00;99.90;;;;;;4974260;28;20051;-82
2022/12/28 11:09:23;;;;;;;16.77;9.70;;;9.00;99.90;;;;;;4968830;28;20068;-84
2022/12/28 11:11:51;;;;;;;19.65;10.95;;;9.00;99.90;;;;;;4954130;28;20055;-81
2022/12/28 11:14:36;;;;;;;15.10;9.55;;;9.10;99.90;;;;;;4970091;28;20133;-81
2022/12/28 11:17:28;;;;;;;14.60;8.98;;;9.00;99.90;;;;;;4965879;28;20050;-81
2022/12/28 11:20:05;;;;;;;14.77;8.32;;;9.10;99.90;;;;;;4970770;28;20050;-82
2022/12/28 11:22:31;;;;;;;19.63;7.85;;;9.00;99.90;;;;;;4978124;28;20058;-81
2022/12/28 11:24:59;;;;;;;14.05;7.50;;;9.10;99.90;;;;;;4960761;28;20045;-82
2022/12/28 11:27:25;;;;;;;15.50;8.65;;;9.10;99.90;;;;;;4985724;28;20096;-82
2022/12/28 11:29:53;;;;;;;10.20;6.45;;;9.00;99.90;;;;;;4941447;28;20050;-82
2022/12/28 11:32:43;;;;;;;11.40;7.13;;;9.00;99.90;;;;;;4939812;28;20081;-81
2022/12/28 11:35:17;;;;;;;8.07;5.15;;;9.00;99.90;;;;;;4957511;28;20132;-82
2022/12/28 11:37:50;;;;;;;9.10;5.07;;;9.00;99.90;;;;;;4985753;28;20089;-81
2022/12/28 11:40:41;;;;;;;9.95;5.40;;;9.00;99.90;;;;;;4992132;28;20499;-81
2022/12/28 11:43:29;;;;;;;8.63;5.50;;;9.00;99.90;;;;;;4984946;28;20050;-82
2022/12/28 11:46:03;;;;;;;9.00;5.32;;;9.00;99.90;;;;;;4975615;28;20050;-82
2022/12/28 11:48:41;;;;;;;11.02;5.97;;;9.00;99.90;;;;;;4979138;28;20046;-81
2022/12/28 11:51:18;;;;;;;8.52;5.80;;;9.00;99.90;;;;;;4980170;28;20045;-82
2022/12/28 11:53:44;;;;;;;9.70;5.53;;;9.00;99.90;;;;;;4988726;28;20395;-82
2022/12/28 11:56:11;;;;;;;8.23;4.95;;;9.10;99.90;;;;;;4995410;28;20129;-81
2022/12/28 11:58:39;;;;;;;8.30;5.45;;;9.10;99.90;;;;;;4985198;28;20912;-81
2022/12/28 12:01:26;;;;;;;9.05;5.30;;;9.10;99.90;;;;;;4995601;28;20046;-81
2022/12/28 12:03:58;;;;;;;12.07;6.38;;;9.00;99.90;;;;;;4986714;28;20064;-81
2022/12/28 12:06:42;;;;;;;13.02;7.18;;;9.00;99.90;;;;;;4979433;28;20045;-81
2022/12/28 12:09:20;;;;;;;9.65;5.78;;;9.10;99.90;;;;;;4995818;28;20077;-82
2022/12/28 12:11:47;;;;;;;9.00;5.78;;;9.00;99.90;;;;;;4979235;28;20593;-81
2022/12/28 12:14:16;;;;;;;8.60;5.78;;;9.00;99.90;;;;;;4979898;28;20046;-82
2022/12/28 12:17:01;;;;;;;8.48;5.38;;;9.00;99.90;;;;;;4965072;28;20081;-81
2022/12/28 12:19:38;;;;;;;17.85;6.72;;;9.00;99.90;;;;;;4991465;28;20060;-82
2022/12/28 12:22:21;;;;;;;9.93;5.40;;;9.00;99.90;;;;;;4995451;28;20304;-82
2022/12/28 12:25:10;;;;;;;10.38;6.28;;;9.00;99.90;;;;;;4986793;28;20155;-81
2022/12/28 12:27:41;;;;;;;13.90;6.63;;;9.00;99.90;;;;;;4978747;28;20054;-81
2022/12/28 12:30:19;;;;;;;12.07;6.53;;;9.00;99.90;;;;;;4975332;28;20057;-81
2022/12/28 12:33:23;;;;;;;13.60;6.63;;;9.00;99.90;;;;;;4976897;28;20377;-86
2022/12/28 12:36:21;;;;;;;10.52;6.80;;;9.00;99.90;;;;;;4960849;28;20053;-82
2022/12/28 12:39:09;;;;;;;8.60;5.90;;;9.00;99.90;;;;;;4991095;28;20046;-86
2022/12/28 12:41:48;;;;;;;11.60;6.93;;;8.90;99.90;;;;;;5001935;28;20112;-81
2022/12/28 12:44:22;;;;;;;13.32;6.53;;;9.00;99.90;;;;;;4993661;28;20085;-81
2022/12/28 12:46:51;;;;;;;8.02;4.78;;;9.00;99.90;;;;;;4995338;28;20049;-86
2022/12/28 12:49:53;;;;;;;9.27;6.60;;;9.00;99.90;;;;;;4985228;28;20203;-81
2022/12/28 12:52:44;;;;;;;10.10;5.55;;;9.00;99.90;;;;;;4980501;28;20068;-84
2022/12/28 12:55:25;;;;;;;8.35;5.53;;;9.00;99.90;;;;;;4991316;28;20550;-82
2022/12/28 12:58:18;;;;;;;9.40;5.78;;;9.00;99.90;;;;;;4984856;28;20496;-80
2022/12/28 13:01:07;;;;;;;8.95;5.55;;;8.90;99.90;;;;;;4975193;28;20097;-81
2022/12/28 13:03:45;;;;;;;12.68;5.93;;;8.90;99.90;;;;;;4983717;28;20090;-84
2022/12/28 13:06:26;;;;;;;10.18;6.13;;;9.00;99.90;;;;;;4989977;28;20228;-81
2022/12/28 13:08:55;;;;;;;8.27;4.90;;;8.90;99.90;;;;;;4985008;28;20053;-82
2022/12/28 13:11:22;;;;;;;6.40;4.75;;;8.90;99.90;;;;;;4990829;28;20046;-81
2022/12/28 13:13:53;;;;;;;7.13;4.78;;;8.90;99.90;;;;;;4958193;28;20526;-81
2022/12/28 13:16:25;;;;;;;7.68;5.18;;;8.90;99.90;;;;;;4972698;28;20049;-82
2022/12/28 13:19:19;;;;;;;7.10;5.13;;;8.90;99.90;;;;;;4986579;28;20496;-86
2022/12/28 13:21:50;;;;;;;7.15;4.80;;;8.90;99.90;;;;;;4990139;28;20400;-81
2022/12/28 13:24:28;;;;;;;8.45;5.00;;;8.90;99.90;;;;;;4977320;28;20045;-81
2022/12/28 13:26:55;;;;;;;6.75;4.75;;;8.90;99.90;;;;;;4991038;28;20388;-84